Portada
METAR-TAF:

METAR-TAF

Aeropuertos :

Aeropuerto Internacional Doctor Fernando Piragine Niveyro

Corrientes, Argentina

latitud: 27-27S, longitud: 058-46W, altitud: 62 m

Observación

El informe se hizo hace 55 minutos, a las 23:00 UTC
Viento 3 kt del este-noreste
Temperatura 29°C
Humedad 55%
Presión 1011 hPa
Visibilidad 10 km o más
sin nubes por debajo de 1500 m y sin presencia de cumulonimbus.

METAR: SARC 092300Z 07003KT CAVOK 29/19 Q1011

Hora: 20:55 (23:55 UTC)


TAF: falta

Observaciones y pronósticos meteorológicos de más de 4000 aeropuertos (mensajes METAR y TAF).

Los puntos amarillos y rojos representan las estaciones disponibles.

Ponga el ratón en el punto deseado para ver el nombre de la estación.

Haga clic para ver las observaciones y los pronósticos meteorológicos.

Para cambiar el mapa : haga clic en los botones verdes con una cruz de color negro para hacer un zoom, en el botón verde con un guión para alejar o en las flechas verdes para mapas adyacentes.


METAR-TAF: